DLH2HK EDDF-LPPR
Flight info
| Callsign | DLH2HK |
|---|---|
| Flight time | 2h 33m |
| Altitude | 35000 |
| Route | SOBRA2L SOBRA Y180 DIK UN857 TOLVU DCT RAPOR DCT GIMER DCT ESTOC UT300 PON UN872 GODIX/N0427F310 UN872 DIDAK/N0441F370 UN872 TERPO/N0438F350 UN872 ERIGA UZ218 FUJTI DCT ATLEN DCT INSID T326 ASPOR |
| Aircraft | A320/M-SDE3FGHIRWY/LB1 |
Departure
| Time | 2026-04-16 06:40 |
|---|---|
| Airport | Frankfurt Main Airport (EDDF) |
Arrival
| Time | 2026-04-16 09:14 |
|---|---|
| Airport | Francisco de Sá Carneiro Airport (LPPR) |
| Time | Latitude | Longitude | Altitude | Speed | Heading |
|---|---|---|---|---|---|
| 2026-04-16 06:17 | 50.04453 | 8.56431 | 363 ft | 0 kts | 154° |
| 2026-04-16 06:30 | 50.04469 | 8.56419 | 332 ft | 4 kts | 154° |
| 2026-04-16 06:31 | 50.04494 | 8.56402 | 364 ft | 4 kts | 163° |
| 2026-04-16 06:31 | 50.04516 | 8.56398 | 356 ft | 4 kts | 217° |
| 2026-04-16 06:31 | 50.04522 | 8.56406 | 356 ft | 0 kts | 250° |
| 2026-04-16 06:31 | 50.04515 | 8.56375 | 359 ft | 1 kts | 250° |
| 2026-04-16 06:32 | 50.04514 | 8.56374 | 358 ft | 0 kts | 250° |
| 2026-04-16 06:33 | 50.04508 | 8.56349 | 363 ft | 5 kts | 249° |
| 2026-04-16 06:34 | 50.04490 | 8.56273 | 356 ft | 9 kts | 250° |
| 2026-04-16 06:34 | 50.04468 | 8.56179 | 361 ft | 9 kts | 250° |
| 2026-04-16 06:34 | 50.04444 | 8.56085 | 358 ft | 10 kts | 246° |
| 2026-04-16 06:34 | 50.04384 | 8.56033 | 358 ft | 11 kts | 168° |
| 2026-04-16 06:35 | 50.04306 | 8.56071 | 360 ft | 12 kts | 175° |
| 2026-04-16 06:35 | 50.04248 | 8.55976 | 361 ft | 15 kts | 249° |
| 2026-04-16 06:35 | 50.04200 | 8.55773 | 353 ft | 22 kts | 249° |
| 2026-04-16 06:35 | 50.04144 | 8.55539 | 354 ft | 24 kts | 249° |
| 2026-04-16 06:36 | 50.04086 | 8.55297 | 354 ft | 24 kts | 249° |
| 2026-04-16 06:36 | 50.04028 | 8.55056 | 355 ft | 24 kts | 250° |
| 2026-04-16 06:36 | 50.03968 | 8.54804 | 356 ft | 26 kts | 249° |
| 2026-04-16 06:36 | 50.03909 | 8.54557 | 357 ft | 24 kts | 250° |
| 2026-04-16 06:37 | 50.03843 | 8.54334 | 351 ft | 22 kts | 236° |
| 2026-04-16 06:37 | 50.03774 | 8.54114 | 353 ft | 23 kts | 250° |
| 2026-04-16 06:37 | 50.03716 | 8.53871 | 352 ft | 25 kts | 250° |
| 2026-04-16 06:37 | 50.03654 | 8.53616 | 344 ft | 26 kts | 248° |
| 2026-04-16 06:38 | 50.03592 | 8.53367 | 335 ft | 21 kts | 250° |
| 2026-04-16 06:38 | 50.03538 | 8.53142 | 338 ft | 23 kts | 249° |
| 2026-04-16 06:38 | 50.03485 | 8.52924 | 334 ft | 20 kts | 249° |
| 2026-04-16 06:38 | 50.03437 | 8.52754 | 333 ft | 17 kts | 247° |
| 2026-04-16 06:39 | 50.03390 | 8.52614 | 333 ft | 12 kts | 212° |
| 2026-04-16 06:39 | 50.03308 | 8.52594 | 335 ft | 13 kts | 179° |
| 2026-04-16 06:39 | 50.03147 | 8.52594 | 330 ft | 50 kts | 180° |
| 2026-04-16 06:39 | 50.02566 | 8.52601 | 335 ft | 113 kts | 179° |
| 2026-04-16 06:40 | 50.01586 | 8.52609 | 335 ft | 162 kts | 179° |
| 2026-04-16 06:40 | 50.00435 | 8.52633 | 901 ft | 165 kts | 180° |
| 2026-04-16 06:40 | 49.99284 | 8.52685 | 1615 ft | 166 kts | 180° |
| 2026-04-16 06:40 | 49.98089 | 8.52757 | 2022 ft | 184 kts | 181° |
| 2026-04-16 06:41 | 49.96712 | 8.52841 | 2279 ft | 207 kts | 180° |
| 2026-04-16 06:41 | 49.95213 | 8.52937 | 2699 ft | 226 kts | 180° |
| 2026-04-16 06:41 | 49.93622 | 8.53046 | 3441 ft | 231 kts | 180° |
| 2026-04-16 06:41 | 49.92001 | 8.53161 | 4193 ft | 235 kts | 179° |
| 2026-04-16 06:42 | 49.90360 | 8.53278 | 5013 ft | 237 kts | 179° |
| 2026-04-16 06:42 | 49.88700 | 8.53395 | 5823 ft | 240 kts | 180° |
| 2026-04-16 06:42 | 49.87034 | 8.53272 | 6594 ft | 242 kts | 195° |
| 2026-04-16 06:42 | 49.85370 | 8.52440 | 6968 ft | 263 kts | 202° |
| 2026-04-16 06:43 | 49.83607 | 8.51435 | 7551 ft | 274 kts | 202° |
| 2026-04-16 06:43 | 49.81801 | 8.50392 | 8307 ft | 280 kts | 202° |
| 2026-04-16 06:43 | 49.79962 | 8.49335 | 9096 ft | 284 kts | 202° |
| 2026-04-16 06:43 | 49.78177 | 8.47999 | 9859 ft | 286 kts | 219° |
| 2026-04-16 06:44 | 49.76810 | 8.45771 | 10472 ft | 292 kts | 240° |
| 2026-04-16 06:44 | 49.76077 | 8.42764 | 10689 ft | 310 kts | 264° |
| 2026-04-16 06:44 | 49.76237 | 8.39400 | 11092 ft | 321 kts | 285° |
| 2026-04-16 06:44 | 49.76812 | 8.36037 | 11773 ft | 325 kts | 285° |
| 2026-04-16 06:45 | 49.77379 | 8.32640 | 12516 ft | 328 kts | 284° |
| 2026-04-16 06:45 | 49.77939 | 8.29201 | 13253 ft | 331 kts | 284° |
| 2026-04-16 06:45 | 49.78495 | 8.25732 | 13976 ft | 334 kts | 283° |
| 2026-04-16 06:45 | 49.79053 | 8.22232 | 14600 ft | 336 kts | 283° |
| 2026-04-16 06:46 | 49.79615 | 8.18703 | 15225 ft | 339 kts | 283° |
| 2026-04-16 06:46 | 49.80180 | 8.15143 | 15869 ft | 342 kts | 284° |
| 2026-04-16 06:46 | 49.80745 | 8.11561 | 16519 ft | 343 kts | 284° |
| 2026-04-16 06:46 | 49.81312 | 8.07960 | 17152 ft | 346 kts | 284° |
| 2026-04-16 06:47 | 49.81885 | 8.04327 | 17786 ft | 348 kts | 284° |
| 2026-04-16 06:47 | 49.82461 | 8.00671 | 18404 ft | 351 kts | 284° |
| 2026-04-16 06:47 | 49.83043 | 7.96983 | 18947 ft | 353 kts | 284° |
| 2026-04-16 06:47 | 49.83628 | 7.93275 | 19478 ft | 355 kts | 284° |
| 2026-04-16 06:48 | 49.84215 | 7.89547 | 20010 ft | 357 kts | 284° |
| 2026-04-16 06:48 | 49.84800 | 7.85790 | 20541 ft | 360 kts | 283° |
| 2026-04-16 06:48 | 49.85386 | 7.82013 | 21059 ft | 361 kts | 283° |
| 2026-04-16 06:48 | 49.85976 | 7.78217 | 21561 ft | 363 kts | 283° |
| 2026-04-16 06:49 | 49.86572 | 7.74403 | 22065 ft | 365 kts | 283° |
| 2026-04-16 06:49 | 49.87178 | 7.70570 | 22565 ft | 367 kts | 283° |
| 2026-04-16 06:49 | 49.87785 | 7.66717 | 23076 ft | 369 kts | 283° |
| 2026-04-16 06:49 | 49.88391 | 7.62844 | 23568 ft | 370 kts | 283° |
| 2026-04-16 06:50 | 49.88994 | 7.58958 | 24006 ft | 372 kts | 283° |
| 2026-04-16 06:50 | 49.89604 | 7.54995 | 24411 ft | 374 kts | 283° |
| 2026-04-16 06:50 | 49.90208 | 7.51067 | 24808 ft | 375 kts | 283° |
| 2026-04-16 06:50 | 49.90813 | 7.47117 | 25191 ft | 377 kts | 282° |
| 2026-04-16 06:51 | 49.91420 | 7.43146 | 25564 ft | 379 kts | 282° |
| 2026-04-16 06:51 | 49.92029 | 7.39155 | 25929 ft | 381 kts | 282° |
| 2026-04-16 06:51 | 49.92638 | 7.35148 | 26282 ft | 383 kts | 282° |
| 2026-04-16 06:51 | 49.93242 | 7.31172 | 26638 ft | 385 kts | 282° |
| 2026-04-16 06:52 | 49.93859 | 7.27115 | 26996 ft | 387 kts | 282° |
| 2026-04-16 06:52 | 49.94476 | 7.23044 | 27365 ft | 388 kts | 282° |
| 2026-04-16 06:52 | 49.95101 | 7.18903 | 27724 ft | 390 kts | 282° |
| 2026-04-16 06:52 | 49.95718 | 7.14793 | 28087 ft | 392 kts | 282° |
| 2026-04-16 06:53 | 49.96326 | 7.10715 | 28442 ft | 394 kts | 282° |
| 2026-04-16 06:53 | 49.96942 | 7.06563 | 28777 ft | 396 kts | 282° |
| 2026-04-16 06:53 | 49.97557 | 7.02388 | 29124 ft | 397 kts | 282° |
| 2026-04-16 06:53 | 49.98176 | 6.98195 | 29448 ft | 399 kts | 282° |
| 2026-04-16 06:54 | 49.98801 | 6.93982 | 29786 ft | 401 kts | 281° |
| 2026-04-16 06:54 | 49.99215 | 6.89695 | 30071 ft | 402 kts | 273° |
| 2026-04-16 06:54 | 49.99191 | 6.85349 | 30334 ft | 403 kts | 268° |
| 2026-04-16 06:54 | 49.99060 | 6.80987 | 30582 ft | 405 kts | 268° |
| 2026-04-16 06:55 | 49.98929 | 6.76608 | 30831 ft | 407 kts | 268° |
| 2026-04-16 06:55 | 49.98797 | 6.72152 | 31080 ft | 408 kts | 268° |
| 2026-04-16 06:55 | 49.98663 | 6.67742 | 31333 ft | 409 kts | 268° |
| 2026-04-16 06:55 | 49.98528 | 6.63391 | 31674 ft | 408 kts | 268° |
| 2026-04-16 06:56 | 49.98348 | 6.59007 | 32017 ft | 407 kts | 264° |
| 2026-04-16 06:56 | 49.97772 | 6.54706 | 32341 ft | 408 kts | 255° |
| 2026-04-16 06:56 | 49.96747 | 6.50591 | 32672 ft | 409 kts | 249° |
| 2026-04-16 06:56 | 49.95600 | 6.46547 | 32990 ft | 409 kts | 249° |
| 2026-04-16 06:57 | 49.94462 | 6.42507 | 33316 ft | 408 kts | 249° |
| 2026-04-16 06:57 | 49.93331 | 6.38468 | 33646 ft | 407 kts | 249° |
| 2026-04-16 06:57 | 49.92202 | 6.34442 | 33984 ft | 407 kts | 250° |
| 2026-04-16 06:57 | 49.91074 | 6.30430 | 34312 ft | 405 kts | 250° |
| 2026-04-16 06:58 | 49.89947 | 6.26427 | 34598 ft | 405 kts | 250° |
| 2026-04-16 06:58 | 49.88788 | 6.22443 | 34867 ft | 405 kts | 250° |
| 2026-04-16 06:58 | 49.87643 | 6.18462 | 35094 ft | 405 kts | 250° |
| 2026-04-16 06:58 | 49.86503 | 6.14468 | 35207 ft | 404 kts | 248° |
| 2026-04-16 06:59 | 49.83468 | 6.07132 | 35221 ft | 405 kts | 239° |
| 2026-04-16 06:59 | 49.80187 | 5.99977 | 35210 ft | 405 kts | 239° |
| 2026-04-16 07:00 | 49.76897 | 5.92875 | 35220 ft | 406 kts | 239° |
| 2026-04-16 07:01 | 49.72917 | 5.81562 | 35222 ft | 396 kts | 255° |
| 2026-04-16 07:01 | 49.71075 | 5.73549 | 35223 ft | 396 kts | 255° |
| 2026-04-16 07:02 | 49.69219 | 5.65611 | 35221 ft | 396 kts | 254° |
| 2026-04-16 07:02 | 49.67340 | 5.57617 | 35224 ft | 396 kts | 254° |
| 2026-04-16 07:03 | 49.65461 | 5.49626 | 35226 ft | 396 kts | 254° |
| 2026-04-16 07:03 | 49.63577 | 5.41635 | 35227 ft | 396 kts | 254° |
| 2026-04-16 07:04 | 49.61706 | 5.33585 | 35214 ft | 395 kts | 255° |
| 2026-04-16 07:04 | 49.60000 | 5.25601 | 35212 ft | 395 kts | 256° |
| 2026-04-16 07:05 | 49.58367 | 5.17516 | 35217 ft | 394 kts | 258° |
| 2026-04-16 07:05 | 49.56946 | 5.09360 | 35220 ft | 394 kts | 259° |
| 2026-04-16 07:06 | 49.55551 | 5.01144 | 35219 ft | 394 kts | 259° |
| 2026-04-16 07:06 | 49.54126 | 4.93003 | 35218 ft | 394 kts | 258° |
| 2026-04-16 07:07 | 49.52911 | 4.86242 | 35226 ft | 394 kts | 258° |
| 2026-04-16 07:07 | 49.51442 | 4.78131 | 35230 ft | 393 kts | 258° |
| 2026-04-16 07:08 | 49.49972 | 4.70028 | 35229 ft | 393 kts | 258° |
| 2026-04-16 07:08 | 49.48507 | 4.61926 | 35231 ft | 393 kts | 258° |
| 2026-04-16 07:09 | 49.47043 | 4.53828 | 35229 ft | 393 kts | 258° |
| 2026-04-16 07:09 | 49.45556 | 4.45737 | 35240 ft | 394 kts | 258° |
| 2026-04-16 07:10 | 49.44062 | 4.37646 | 35222 ft | 393 kts | 258° |
| 2026-04-16 07:10 | 49.42569 | 4.29571 | 35224 ft | 393 kts | 258° |
| 2026-04-16 07:11 | 49.41068 | 4.21499 | 35228 ft | 393 kts | 258° |
| 2026-04-16 07:11 | 49.39559 | 4.13431 | 35229 ft | 393 kts | 258° |
| 2026-04-16 07:12 | 49.38047 | 4.05355 | 35227 ft | 394 kts | 258° |
| 2026-04-16 07:12 | 49.36533 | 3.97283 | 35232 ft | 393 kts | 258° |
| 2026-04-16 07:13 | 49.35251 | 3.89150 | 35234 ft | 392 kts | 262° |
| 2026-04-16 07:13 | 49.34159 | 3.80961 | 35236 ft | 392 kts | 262° |
| 2026-04-16 07:14 | 49.33045 | 3.72782 | 35240 ft | 392 kts | 262° |
| 2026-04-16 07:14 | 49.31888 | 3.64669 | 35242 ft | 392 kts | 261° |
| 2026-04-16 07:15 | 49.30694 | 3.56509 | 35238 ft | 392 kts | 261° |
| 2026-04-16 07:15 | 49.29489 | 3.48361 | 35252 ft | 392 kts | 261° |
| 2026-04-16 07:16 | 49.28278 | 3.40178 | 35264 ft | 391 kts | 261° |
| 2026-04-16 07:16 | 49.27083 | 3.32117 | 35263 ft | 390 kts | 261° |
| 2026-04-16 07:17 | 49.25883 | 3.24013 | 35234 ft | 390 kts | 261° |
| 2026-04-16 07:17 | 49.24682 | 3.15913 | 35235 ft | 390 kts | 261° |
| 2026-04-16 07:18 | 49.23455 | 3.07756 | 35238 ft | 391 kts | 261° |
| 2026-04-16 07:18 | 49.22248 | 2.99718 | 35249 ft | 390 kts | 261° |
| 2026-04-16 07:19 | 49.21029 | 2.91637 | 35256 ft | 390 kts | 261° |
| 2026-04-16 07:19 | 49.19797 | 2.83562 | 35257 ft | 390 kts | 261° |
| 2026-04-16 07:20 | 49.18561 | 2.75493 | 35255 ft | 390 kts | 261° |
| 2026-04-16 07:20 | 49.17318 | 2.67431 | 35257 ft | 390 kts | 261° |
| 2026-04-16 07:21 | 49.16069 | 2.59378 | 35258 ft | 389 kts | 260° |
| 2026-04-16 07:21 | 49.14820 | 2.51339 | 35264 ft | 389 kts | 260° |
| 2026-04-16 07:22 | 49.13563 | 2.43312 | 35264 ft | 388 kts | 260° |
| 2026-04-16 07:22 | 49.12566 | 2.35246 | 35284 ft | 386 kts | 265° |
| 2026-04-16 07:23 | 49.11822 | 2.27144 | 35264 ft | 386 kts | 265° |
| 2026-04-16 07:23 | 49.11069 | 2.19039 | 35264 ft | 385 kts | 265° |
| 2026-04-16 07:24 | 49.10306 | 2.10952 | 35266 ft | 385 kts | 265° |
| 2026-04-16 07:24 | 49.09321 | 2.02929 | 35266 ft | 388 kts | 255° |
| 2026-04-16 07:25 | 49.07134 | 1.95348 | 35260 ft | 391 kts | 250° |
| 2026-04-16 07:25 | 49.04868 | 1.87805 | 35231 ft | 391 kts | 250° |
| 2026-04-16 07:26 | 49.02601 | 1.80257 | 35244 ft | 392 kts | 250° |
| 2026-04-16 07:26 | 49.00314 | 1.72705 | 35244 ft | 392 kts | 250° |
| 2026-04-16 07:27 | 48.98026 | 1.65168 | 35252 ft | 392 kts | 250° |
| 2026-04-16 07:27 | 48.95735 | 1.57638 | 35251 ft | 392 kts | 250° |
| 2026-04-16 07:28 | 48.93437 | 1.50124 | 35254 ft | 392 kts | 250° |
| 2026-04-16 07:28 | 48.91130 | 1.42619 | 35250 ft | 392 kts | 250° |
| 2026-04-16 07:29 | 48.88828 | 1.35123 | 35247 ft | 391 kts | 250° |
| 2026-04-16 07:29 | 48.86525 | 1.27633 | 35253 ft | 391 kts | 250° |
| 2026-04-16 07:30 | 48.84214 | 1.20162 | 35252 ft | 391 kts | 249° |
| 2026-04-16 07:30 | 48.81901 | 1.12711 | 35254 ft | 390 kts | 249° |
| 2026-04-16 07:31 | 48.79587 | 1.05272 | 35257 ft | 390 kts | 249° |
| 2026-04-16 07:31 | 48.77262 | 0.97844 | 35252 ft | 390 kts | 249° |
| 2026-04-16 07:32 | 48.74935 | 0.90422 | 35254 ft | 390 kts | 249° |
| 2026-04-16 07:32 | 48.72199 | 0.83275 | 35256 ft | 393 kts | 244° |
| 2026-04-16 07:33 | 48.69345 | 0.76217 | 35267 ft | 393 kts | 244° |
| 2026-04-16 07:33 | 48.66486 | 0.69177 | 35261 ft | 393 kts | 244° |
| 2026-04-16 07:34 | 48.63623 | 0.62151 | 35240 ft | 392 kts | 244° |
| 2026-04-16 07:34 | 48.60757 | 0.55123 | 35239 ft | 393 kts | 244° |
| 2026-04-16 07:35 | 48.57886 | 0.48090 | 35233 ft | 394 kts | 244° |
| 2026-04-16 07:35 | 48.55006 | 0.41057 | 35240 ft | 394 kts | 243° |
| 2026-04-16 07:36 | 48.52122 | 0.34032 | 35240 ft | 394 kts | 243° |
| 2026-04-16 07:36 | 48.49223 | 0.27010 | 35239 ft | 394 kts | 243° |
| 2026-04-16 07:37 | 48.46325 | 0.19997 | 35248 ft | 394 kts | 243° |
| 2026-04-16 07:37 | 48.43421 | 0.12987 | 35226 ft | 394 kts | 243° |
| 2026-04-16 07:38 | 48.40518 | 0.05979 | 35230 ft | 395 kts | 243° |
| 2026-04-16 07:38 | 48.37598 | -0.01017 | 35237 ft | 395 kts | 243° |
| 2026-04-16 07:39 | 48.34582 | -0.07933 | 35248 ft | 396 kts | 240° |
| 2026-04-16 07:39 | 48.31279 | -0.14584 | 35248 ft | 398 kts | 238° |
| 2026-04-16 07:40 | 48.27901 | -0.21158 | 35253 ft | 397 kts | 238° |
| 2026-04-16 07:40 | 48.24565 | -0.27765 | 35256 ft | 397 kts | 238° |
| 2026-04-16 07:41 | 48.21217 | -0.34363 | 35229 ft | 398 kts | 238° |
| 2026-04-16 07:41 | 48.17845 | -0.40949 | 35230 ft | 399 kts | 238° |
| 2026-04-16 07:42 | 48.14459 | -0.47529 | 35236 ft | 399 kts | 238° |
| 2026-04-16 07:42 | 48.11076 | -0.54114 | 35234 ft | 399 kts | 238° |
| 2026-04-16 07:43 | 48.07691 | -0.60698 | 35231 ft | 399 kts | 237° |
| 2026-04-16 07:43 | 48.04298 | -0.67277 | 35236 ft | 400 kts | 237° |
| 2026-04-16 07:44 | 48.00898 | -0.73852 | 35222 ft | 400 kts | 237° |
| 2026-04-16 07:44 | 47.97497 | -0.80420 | 35222 ft | 400 kts | 237° |
| 2026-04-16 07:45 | 47.94082 | -0.86979 | 35227 ft | 400 kts | 237° |
| 2026-04-16 07:45 | 47.90664 | -0.93522 | 35235 ft | 400 kts | 237° |
| 2026-04-16 07:46 | 47.87251 | -1.00067 | 35255 ft | 400 kts | 237° |
| 2026-04-16 07:46 | 47.83832 | -1.06606 | 35250 ft | 400 kts | 237° |
| 2026-04-16 07:47 | 47.80404 | -1.13140 | 35257 ft | 400 kts | 237° |
| 2026-04-16 07:47 | 47.76972 | -1.19669 | 35237 ft | 401 kts | 237° |
| 2026-04-16 07:48 | 47.74114 | -1.25096 | 35236 ft | 402 kts | 237° |
| 2026-04-16 07:48 | 47.70665 | -1.31624 | 35239 ft | 402 kts | 236° |
| 2026-04-16 07:49 | 47.67209 | -1.38146 | 35251 ft | 402 kts | 236° |
| 2026-04-16 07:49 | 47.63751 | -1.44660 | 35256 ft | 402 kts | 236° |
| 2026-04-16 07:50 | 47.60283 | -1.51156 | 35261 ft | 402 kts | 236° |
| 2026-04-16 07:50 | 47.56654 | -1.57485 | 35247 ft | 404 kts | 233° |
| 2026-04-16 07:51 | 47.52849 | -1.63624 | 35253 ft | 405 kts | 232° |
| 2026-04-16 07:51 | 47.49032 | -1.69757 | 35256 ft | 405 kts | 232° |
| 2026-04-16 07:52 | 47.45256 | -1.75924 | 35263 ft | 404 kts | 232° |
| 2026-04-16 07:52 | 47.41500 | -1.82086 | 35267 ft | 404 kts | 232° |
| 2026-04-16 07:53 | 47.37738 | -1.88241 | 35254 ft | 404 kts | 232° |
| 2026-04-16 07:53 | 47.33653 | -1.93971 | 35234 ft | 411 kts | 219° |
| 2026-04-16 07:54 | 47.28753 | -1.98405 | 35235 ft | 414 kts | 216° |
| 2026-04-16 07:54 | 47.23824 | -2.02797 | 35237 ft | 414 kts | 216° |
| 2026-04-16 07:55 | 47.18893 | -2.07197 | 35249 ft | 415 kts | 216° |
| 2026-04-16 07:55 | 47.13969 | -2.11589 | 35243 ft | 414 kts | 216° |
| 2026-04-16 07:56 | 47.09050 | -2.15962 | 35256 ft | 413 kts | 216° |
| 2026-04-16 07:56 | 47.04131 | -2.20324 | 35258 ft | 413 kts | 216° |
| 2026-04-16 07:57 | 46.99213 | -2.24673 | 35263 ft | 413 kts | 216° |
| 2026-04-16 07:57 | 46.94294 | -2.29010 | 35255 ft | 413 kts | 216° |
| 2026-04-16 07:58 | 46.89371 | -2.33334 | 35256 ft | 413 kts | 216° |
| 2026-04-16 07:58 | 46.84446 | -2.37668 | 35258 ft | 413 kts | 216° |
| 2026-04-16 07:59 | 46.79525 | -2.41998 | 35259 ft | 413 kts | 216° |
| 2026-04-16 07:59 | 46.74601 | -2.46309 | 35270 ft | 413 kts | 216° |
| 2026-04-16 08:00 | 46.69681 | -2.50609 | 35278 ft | 412 kts | 216° |
| 2026-04-16 08:00 | 46.64767 | -2.54897 | 35281 ft | 412 kts | 216° |
| 2026-04-16 08:01 | 46.59856 | -2.59176 | 35283 ft | 411 kts | 216° |
| 2026-04-16 08:01 | 46.54945 | -2.63452 | 35283 ft | 411 kts | 216° |
| 2026-04-16 08:02 | 46.50030 | -2.67711 | 35265 ft | 412 kts | 215° |
| 2026-04-16 08:02 | 46.42647 | -2.74088 | 35264 ft | 412 kts | 215° |
| 2026-04-16 08:03 | 46.37720 | -2.78334 | 35264 ft | 412 kts | 215° |
| 2026-04-16 08:03 | 46.32792 | -2.82569 | 35264 ft | 412 kts | 215° |
| 2026-04-16 08:04 | 46.27871 | -2.86797 | 35269 ft | 411 kts | 216° |
| 2026-04-16 08:04 | 46.23407 | -2.91807 | 35267 ft | 406 kts | 224° |
| 2026-04-16 08:05 | 46.19102 | -2.97078 | 35271 ft | 406 kts | 224° |
| 2026-04-16 08:05 | 46.14787 | -3.02326 | 35266 ft | 406 kts | 224° |
| 2026-04-16 08:06 | 46.10475 | -3.07571 | 35246 ft | 406 kts | 224° |
| 2026-04-16 08:06 | 46.06152 | -3.12819 | 35251 ft | 407 kts | 224° |
| 2026-04-16 08:07 | 46.01822 | -3.18067 | 35258 ft | 407 kts | 224° |
| 2026-04-16 08:07 | 45.97490 | -3.23305 | 35274 ft | 407 kts | 224° |
| 2026-04-16 08:08 | 45.93159 | -3.28534 | 35273 ft | 406 kts | 224° |
| 2026-04-16 08:08 | 45.88834 | -3.33758 | 35268 ft | 406 kts | 224° |
| 2026-04-16 08:09 | 45.84499 | -3.38962 | 35266 ft | 406 kts | 224° |
| 2026-04-16 08:09 | 45.80160 | -3.44160 | 35271 ft | 406 kts | 224° |
| 2026-04-16 08:10 | 45.75819 | -3.49351 | 35266 ft | 406 kts | 224° |
| 2026-04-16 08:10 | 45.71477 | -3.54531 | 35255 ft | 406 kts | 223° |
| 2026-04-16 08:11 | 45.67139 | -3.59706 | 35259 ft | 406 kts | 223° |
| 2026-04-16 08:11 | 45.62800 | -3.64871 | 35258 ft | 406 kts | 223° |
| 2026-04-16 08:12 | 45.58455 | -3.70016 | 35261 ft | 406 kts | 223° |
| 2026-04-16 08:12 | 45.54117 | -3.75164 | 35263 ft | 405 kts | 223° |
| 2026-04-16 08:13 | 45.49778 | -3.80294 | 35253 ft | 405 kts | 223° |
| 2026-04-16 08:13 | 45.45430 | -3.85411 | 35255 ft | 405 kts | 223° |
| 2026-04-16 08:14 | 45.41080 | -3.90522 | 35262 ft | 405 kts | 222° |
| 2026-04-16 08:14 | 45.36735 | -3.95623 | 35267 ft | 405 kts | 222° |
| 2026-04-16 08:15 | 45.32398 | -4.00713 | 35270 ft | 404 kts | 222° |
| 2026-04-16 08:15 | 45.28057 | -4.05791 | 35255 ft | 404 kts | 222° |
| 2026-04-16 08:16 | 45.23738 | -4.10828 | 35258 ft | 405 kts | 222° |
| 2026-04-16 08:16 | 45.19387 | -4.15898 | 35258 ft | 405 kts | 222° |
| 2026-04-16 08:17 | 45.15037 | -4.20963 | 35257 ft | 405 kts | 222° |
| 2026-04-16 08:17 | 45.10678 | -4.26019 | 35251 ft | 405 kts | 222° |
| 2026-04-16 08:19 | 44.93136 | -4.46255 | 35260 ft | 407 kts | 222° |
| 2026-04-16 08:20 | 44.88775 | -4.51261 | 35250 ft | 407 kts | 221° |
| 2026-04-16 08:20 | 44.84350 | -4.56335 | 35252 ft | 407 kts | 221° |
| 2026-04-16 08:21 | 44.79950 | -4.61364 | 35259 ft | 407 kts | 221° |
| 2026-04-16 08:21 | 44.75587 | -4.66335 | 35267 ft | 406 kts | 221° |
| 2026-04-16 08:22 | 44.71199 | -4.71333 | 35267 ft | 406 kts | 221° |
| 2026-04-16 08:22 | 44.66813 | -4.76317 | 35268 ft | 406 kts | 221° |
| 2026-04-16 08:23 | 44.62424 | -4.81300 | 35269 ft | 405 kts | 221° |
| 2026-04-16 08:23 | 44.58034 | -4.86265 | 35266 ft | 405 kts | 221° |
| 2026-04-16 08:24 | 44.53641 | -4.91223 | 35268 ft | 405 kts | 221° |
| 2026-04-16 08:24 | 44.49230 | -4.96140 | 35252 ft | 405 kts | 219° |
| 2026-04-16 08:25 | 44.44671 | -5.00792 | 35262 ft | 405 kts | 217° |
| 2026-04-16 08:25 | 44.40056 | -5.05325 | 35262 ft | 405 kts | 217° |
| 2026-04-16 08:26 | 44.35460 | -5.09876 | 35261 ft | 405 kts | 218° |
| 2026-04-16 08:26 | 44.30881 | -5.14449 | 35261 ft | 404 kts | 218° |
| 2026-04-16 08:27 | 44.26308 | -5.19029 | 35246 ft | 405 kts | 218° |
| 2026-04-16 08:27 | 44.21733 | -5.23607 | 35247 ft | 405 kts | 217° |
| 2026-04-16 08:28 | 44.17149 | -5.28163 | 35250 ft | 405 kts | 217° |
| 2026-04-16 08:28 | 44.12562 | -5.32719 | 35250 ft | 405 kts | 217° |
| 2026-04-16 08:29 | 44.07980 | -5.37260 | 35254 ft | 404 kts | 217° |
| 2026-04-16 08:29 | 44.04176 | -5.41022 | 35257 ft | 403 kts | 217° |
| 2026-04-16 08:30 | 43.99604 | -5.45541 | 35256 ft | 403 kts | 217° |
| 2026-04-16 08:30 | 43.95032 | -5.50050 | 35257 ft | 403 kts | 217° |
| 2026-04-16 08:31 | 43.90461 | -5.54546 | 35257 ft | 403 kts | 217° |
| 2026-04-16 08:31 | 43.85888 | -5.59032 | 35237 ft | 403 kts | 217° |
| 2026-04-16 08:32 | 43.81310 | -5.63518 | 35234 ft | 403 kts | 217° |
| 2026-04-16 08:32 | 43.76726 | -5.68007 | 35233 ft | 404 kts | 217° |
| 2026-04-16 08:33 | 43.72140 | -5.72483 | 35241 ft | 403 kts | 217° |
| 2026-04-16 08:33 | 43.67557 | -5.76948 | 35231 ft | 403 kts | 217° |
| 2026-04-16 08:34 | 43.62981 | -5.81405 | 35232 ft | 402 kts | 217° |
| 2026-04-16 08:34 | 43.58402 | -5.85848 | 35230 ft | 402 kts | 217° |
| 2026-04-16 08:35 | 43.53815 | -5.90277 | 35228 ft | 403 kts | 217° |
| 2026-04-16 08:35 | 43.49230 | -5.94715 | 35226 ft | 403 kts | 217° |
| 2026-04-16 08:36 | 43.44638 | -5.99148 | 35213 ft | 403 kts | 217° |
| 2026-04-16 08:36 | 43.40041 | -6.03585 | 35212 ft | 404 kts | 217° |
| 2026-04-16 08:37 | 43.35438 | -6.08024 | 35217 ft | 404 kts | 217° |
| 2026-04-16 08:37 | 43.30831 | -6.12440 | 35231 ft | 403 kts | 217° |
| 2026-04-16 08:38 | 43.26234 | -6.16845 | 35217 ft | 403 kts | 217° |
| 2026-04-16 08:38 | 43.21635 | -6.21240 | 35219 ft | 403 kts | 217° |
| 2026-04-16 08:39 | 43.17034 | -6.25630 | 35220 ft | 403 kts | 217° |
| 2026-04-16 08:39 | 43.12431 | -6.30013 | 35220 ft | 403 kts | 217° |
| 2026-04-16 08:40 | 43.07829 | -6.34385 | 35219 ft | 403 kts | 217° |
| 2026-04-16 08:40 | 43.03225 | -6.38748 | 35207 ft | 403 kts | 217° |
| 2026-04-16 08:41 | 42.98617 | -6.43111 | 35199 ft | 403 kts | 217° |
| 2026-04-16 08:41 | 42.93999 | -6.47474 | 35212 ft | 404 kts | 218° |
| 2026-04-16 08:42 | 42.89344 | -6.51863 | 35217 ft | 404 kts | 218° |
| 2026-04-16 08:42 | 42.84721 | -6.56228 | 35216 ft | 404 kts | 218° |
| 2026-04-16 08:43 | 42.80124 | -6.60558 | 35204 ft | 405 kts | 218° |
| 2026-04-16 08:43 | 42.75454 | -6.64951 | 35207 ft | 406 kts | 218° |
| 2026-04-16 08:44 | 42.70795 | -6.69303 | 35216 ft | 406 kts | 218° |
| 2026-04-16 08:44 | 42.66130 | -6.73652 | 35215 ft | 407 kts | 218° |
| 2026-04-16 08:45 | 42.61468 | -6.78010 | 35215 ft | 407 kts | 218° |
| 2026-04-16 08:45 | 42.56802 | -6.82367 | 35219 ft | 407 kts | 218° |
| 2026-04-16 08:46 | 42.52161 | -6.86676 | 35232 ft | 407 kts | 218° |
| 2026-04-16 08:46 | 42.47487 | -6.90998 | 35233 ft | 406 kts | 218° |
| 2026-04-16 08:47 | 42.42826 | -6.95323 | 35233 ft | 406 kts | 218° |
| 2026-04-16 08:47 | 42.38161 | -6.99646 | 34946 ft | 407 kts | 219° |
| 2026-04-16 08:48 | 42.35827 | -7.01805 | 34708 ft | 405 kts | 219° |
| 2026-04-16 08:48 | 42.33502 | -7.03947 | 34465 ft | 404 kts | 219° |
| 2026-04-16 08:48 | 42.31177 | -7.06083 | 34221 ft | 404 kts | 219° |
| 2026-04-16 08:48 | 42.28923 | -7.08304 | 33954 ft | 398 kts | 225° |
| 2026-04-16 08:49 | 42.27000 | -7.10942 | 33677 ft | 391 kts | 234° |
| 2026-04-16 08:49 | 42.25468 | -7.13919 | 33243 ft | 383 kts | 241° |
| 2026-04-16 08:49 | 42.24080 | -7.16979 | 32726 ft | 380 kts | 241° |
| 2026-04-16 08:49 | 42.22679 | -7.20046 | 32221 ft | 377 kts | 241° |
| 2026-04-16 08:50 | 42.21301 | -7.23043 | 31738 ft | 375 kts | 240° |
| 2026-04-16 08:50 | 42.19925 | -7.26018 | 31317 ft | 373 kts | 240° |
| 2026-04-16 08:50 | 42.18554 | -7.28988 | 31075 ft | 373 kts | 240° |
| 2026-04-16 08:50 | 42.17183 | -7.31955 | 30831 ft | 372 kts | 240° |
| 2026-04-16 08:51 | 42.15832 | -7.34874 | 30579 ft | 372 kts | 240° |
| 2026-04-16 08:51 | 42.14463 | -7.37823 | 30342 ft | 370 kts | 240° |
| 2026-04-16 08:51 | 42.13099 | -7.40759 | 30195 ft | 369 kts | 240° |
| 2026-04-16 08:51 | 42.11736 | -7.43696 | 30233 ft | 370 kts | 240° |
| 2026-04-16 08:52 | 42.10373 | -7.46642 | 29972 ft | 370 kts | 240° |
| 2026-04-16 08:52 | 42.09014 | -7.49571 | 29696 ft | 368 kts | 240° |
| 2026-04-16 08:52 | 42.07659 | -7.52482 | 29413 ft | 366 kts | 240° |
| 2026-04-16 08:52 | 42.06307 | -7.55377 | 29136 ft | 365 kts | 239° |
| 2026-04-16 08:53 | 42.04958 | -7.58262 | 28882 ft | 363 kts | 239° |
| 2026-04-16 08:53 | 42.03618 | -7.61132 | 28610 ft | 362 kts | 240° |
| 2026-04-16 08:53 | 42.02284 | -7.63990 | 28337 ft | 360 kts | 240° |
| 2026-04-16 08:53 | 42.00957 | -7.66832 | 28073 ft | 358 kts | 239° |
| 2026-04-16 08:54 | 41.99634 | -7.69662 | 27817 ft | 357 kts | 239° |
| 2026-04-16 08:54 | 41.98317 | -7.72480 | 27552 ft | 355 kts | 239° |
| 2026-04-16 08:54 | 41.97003 | -7.75286 | 27284 ft | 354 kts | 239° |
| 2026-04-16 08:54 | 41.95694 | -7.78079 | 27041 ft | 353 kts | 239° |
| 2026-04-16 08:55 | 41.94386 | -7.80862 | 26789 ft | 351 kts | 239° |
| 2026-04-16 08:55 | 41.93083 | -7.83632 | 26540 ft | 350 kts | 239° |
| 2026-04-16 08:55 | 41.91784 | -7.86392 | 26284 ft | 350 kts | 239° |
| 2026-04-16 08:55 | 41.90486 | -7.89147 | 26043 ft | 349 kts | 239° |
| 2026-04-16 08:56 | 41.89191 | -7.91895 | 25788 ft | 348 kts | 239° |
| 2026-04-16 08:56 | 41.87901 | -7.94632 | 25550 ft | 347 kts | 238° |
| 2026-04-16 08:56 | 41.86611 | -7.97359 | 25310 ft | 345 kts | 238° |
| 2026-04-16 08:56 | 41.85326 | -8.00072 | 25073 ft | 344 kts | 238° |
| 2026-04-16 08:57 | 41.84044 | -8.02778 | 24840 ft | 343 kts | 238° |
| 2026-04-16 08:57 | 41.82759 | -8.05466 | 24610 ft | 342 kts | 236° |
| 2026-04-16 08:57 | 41.81209 | -8.07877 | 24382 ft | 342 kts | 224° |
| 2026-04-16 08:57 | 41.79304 | -8.09790 | 24147 ft | 344 kts | 212° |
| 2026-04-16 08:58 | 41.77217 | -8.11342 | 23905 ft | 341 kts | 211° |
| 2026-04-16 08:58 | 41.75151 | -8.12880 | 23452 ft | 339 kts | 211° |
| 2026-04-16 08:58 | 41.73099 | -8.14414 | 22987 ft | 337 kts | 211° |
| 2026-04-16 08:58 | 41.71059 | -8.15937 | 22530 ft | 335 kts | 210° |
| 2026-04-16 08:59 | 41.68907 | -8.17140 | 22061 ft | 336 kts | 202° |
| 2026-04-16 08:59 | 41.66700 | -8.18152 | 21627 ft | 335 kts | 202° |
| 2026-04-16 08:59 | 41.64498 | -8.19157 | 21183 ft | 333 kts | 202° |
| 2026-04-16 08:59 | 41.62308 | -8.20153 | 20745 ft | 332 kts | 202° |
| 2026-04-16 09:00 | 41.60125 | -8.21150 | 20302 ft | 331 kts | 202° |
| 2026-04-16 09:00 | 41.57951 | -8.22144 | 19870 ft | 330 kts | 202° |
| 2026-04-16 09:00 | 41.55778 | -8.23140 | 19441 ft | 330 kts | 202° |
| 2026-04-16 09:00 | 41.53610 | -8.24131 | 18999 ft | 329 kts | 202° |
| 2026-04-16 09:01 | 41.49277 | -8.26108 | 18096 ft | 329 kts | 202° |
| 2026-04-16 09:01 | 41.47116 | -8.27093 | 17658 ft | 327 kts | 202° |
| 2026-04-16 09:01 | 41.44971 | -8.28070 | 17246 ft | 325 kts | 202° |
| 2026-04-16 09:02 | 41.42836 | -8.29041 | 16831 ft | 324 kts | 202° |
| 2026-04-16 09:02 | 41.40710 | -8.30009 | 16421 ft | 322 kts | 202° |
| 2026-04-16 09:02 | 41.38589 | -8.30973 | 16020 ft | 322 kts | 202° |
| 2026-04-16 09:02 | 41.36472 | -8.31931 | 15612 ft | 321 kts | 202° |
| 2026-04-16 09:03 | 41.34362 | -8.32885 | 15202 ft | 320 kts | 202° |
| 2026-04-16 09:03 | 41.32257 | -8.33835 | 14792 ft | 319 kts | 202° |
| 2026-04-16 09:03 | 41.30155 | -8.34786 | 14409 ft | 319 kts | 202° |
| 2026-04-16 09:03 | 41.28054 | -8.35738 | 13985 ft | 319 kts | 202° |
| 2026-04-16 09:04 | 41.25948 | -8.36692 | 13367 ft | 323 kts | 202° |
| 2026-04-16 09:04 | 41.23835 | -8.37648 | 12952 ft | 320 kts | 201° |
| 2026-04-16 09:04 | 41.21731 | -8.38596 | 12543 ft | 317 kts | 201° |
| 2026-04-16 09:04 | 41.19643 | -8.39539 | 12127 ft | 316 kts | 201° |
| 2026-04-16 09:05 | 41.17564 | -8.40480 | 11650 ft | 316 kts | 202° |
| 2026-04-16 09:05 | 41.15487 | -8.41421 | 11218 ft | 315 kts | 201° |
| 2026-04-16 09:05 | 41.13417 | -8.42354 | 10796 ft | 313 kts | 201° |
| 2026-04-16 09:05 | 41.11359 | -8.43278 | 10361 ft | 311 kts | 201° |
| 2026-04-16 09:06 | 41.09343 | -8.44182 | 9901 ft | 299 kts | 201° |
| 2026-04-16 09:06 | 41.07412 | -8.45046 | 9480 ft | 286 kts | 201° |
| 2026-04-16 09:06 | 41.05568 | -8.45872 | 9077 ft | 274 kts | 201° |
| 2026-04-16 09:06 | 41.03801 | -8.46661 | 8683 ft | 263 kts | 201° |
| 2026-04-16 09:07 | 41.02130 | -8.47493 | 8295 ft | 250 kts | 211° |
| 2026-04-16 09:07 | 41.00816 | -8.48881 | 7940 ft | 237 kts | 232° |
| 2026-04-16 09:07 | 40.99992 | -8.50763 | 7545 ft | 238 kts | 251° |
| 2026-04-16 09:07 | 40.99636 | -8.52850 | 7153 ft | 233 kts | 258° |
| 2026-04-16 09:08 | 40.99331 | -8.54934 | 6761 ft | 229 kts | 258° |
| 2026-04-16 09:08 | 40.99029 | -8.56983 | 6347 ft | 225 kts | 258° |
| 2026-04-16 09:08 | 40.98878 | -8.59017 | 5945 ft | 222 kts | 278° |
| 2026-04-16 09:08 | 40.99528 | -8.60844 | 5560 ft | 224 kts | 312° |
| 2026-04-16 09:09 | 41.00874 | -8.61861 | 5178 ft | 229 kts | 344° |
| 2026-04-16 09:09 | 41.02434 | -8.62293 | 4742 ft | 228 kts | 347° |
| 2026-04-16 09:09 | 41.03989 | -8.62698 | 4347 ft | 228 kts | 347° |
| 2026-04-16 09:09 | 41.05550 | -8.63104 | 3935 ft | 228 kts | 347° |
| 2026-04-16 09:10 | 41.07081 | -8.63500 | 3565 ft | 221 kts | 348° |
| 2026-04-16 09:10 | 41.08569 | -8.63880 | 3210 ft | 214 kts | 348° |
| 2026-04-16 09:10 | 41.10011 | -8.64251 | 2880 ft | 208 kts | 348° |
| 2026-04-16 09:10 | 41.11392 | -8.64608 | 2629 ft | 196 kts | 348° |
| 2026-04-16 09:11 | 41.12678 | -8.64941 | 2388 ft | 181 kts | 348° |
| 2026-04-16 09:11 | 41.13494 | -8.65153 | 2214 ft | 172 kts | 349° |
| 2026-04-16 09:11 | 41.14633 | -8.65447 | 1979 ft | 162 kts | 349° |
| 2026-04-16 09:11 | 41.15703 | -8.65724 | 1772 ft | 152 kts | 349° |
| 2026-04-16 09:12 | 41.16727 | -8.65984 | 1567 ft | 148 kts | 349° |
| 2026-04-16 09:12 | 41.17732 | -8.66239 | 1383 ft | 146 kts | 349° |
| 2026-04-16 09:12 | 41.18727 | -8.66508 | 1199 ft | 146 kts | 349° |
| 2026-04-16 09:12 | 41.19718 | -8.66771 | 996 ft | 145 kts | 349° |
| 2026-04-16 09:13 | 41.20705 | -8.67028 | 800 ft | 144 kts | 349° |
| 2026-04-16 09:13 | 41.21688 | -8.67299 | 626 ft | 144 kts | 348° |
| 2026-04-16 09:13 | 41.22667 | -8.67579 | 408 ft | 142 kts | 349° |
| 2026-04-16 09:13 | 41.23646 | -8.67831 | 256 ft | 143 kts | 349° |
| 2026-04-16 09:14 | 41.24494 | -8.68043 | 221 ft | 100 kts | 349° |
| 2026-04-16 09:14 | 41.24914 | -8.68152 | 208 ft | 41 kts | 348° |
| 2026-04-16 09:14 | 41.25137 | -8.68160 | 204 ft | 29 kts | 11° |
| 2026-04-16 09:14 | 41.25264 | -8.68107 | 194 ft | 14 kts | 22° |
| 2026-04-16 09:15 | 41.25274 | -8.68024 | 196 ft | 8 kts | 143° |
| 2026-04-16 09:15 | 41.25210 | -8.68000 | 202 ft | 17 kts | 169° |
| 2026-04-16 09:15 | 41.25082 | -8.67968 | 205 ft | 19 kts | 168° |
| 2026-04-16 09:15 | 41.24948 | -8.67932 | 209 ft | 20 kts | 169° |
| 2026-04-16 09:16 | 41.24826 | -8.67870 | 223 ft | 18 kts | 149° |
| 2026-04-16 09:16 | 41.24717 | -8.67817 | 231 ft | 16 kts | 168° |
| 2026-04-16 09:16 | 41.24620 | -8.67791 | 228 ft | 15 kts | 169° |
| 2026-04-16 09:16 | 41.24511 | -8.67760 | 233 ft | 15 kts | 171° |
| 2026-04-16 09:17 | 41.24381 | -8.67728 | 239 ft | 21 kts | 168° |
| 2026-04-16 09:17 | 41.24268 | -8.67642 | 246 ft | 18 kts | 127° |
| 2026-04-16 09:17 | 41.24194 | -8.67520 | 252 ft | 17 kts | 136° |
| 2026-04-16 09:17 | 41.24077 | -8.67434 | 254 ft | 21 kts | 165° |
| 2026-04-16 09:18 | 41.23960 | -8.67450 | 255 ft | 16 kts | 208° |
| 2026-04-16 09:18 | 41.23852 | -8.67483 | 253 ft | 16 kts | 171° |
| 2026-04-16 09:18 | 41.23752 | -8.67443 | 253 ft | 13 kts | 143° |
| 2026-04-16 09:18 | 41.23718 | -8.67389 | 255 ft | 4 kts | 127° |
| 2026-04-16 09:19 | 41.23708 | -8.67374 | 257 ft | 4 kts | 130° |
| 2026-04-16 09:19 | 41.23661 | -8.67341 | 255 ft | 9 kts | 165° |
| 2026-04-16 09:19 | 41.23601 | -8.67334 | 255 ft | 7 kts | 194° |
| 2026-04-16 09:19 | 41.23591 | -8.67338 | 255 ft | 3 kts | 195° |
| 2026-04-16 09:20 | 41.23566 | -8.67297 | 256 ft | 4 kts | 109° |
| 2026-04-16 09:20 | 41.23560 | -8.67272 | 256 ft | 4 kts | 108° |
| 2026-04-16 09:20 | 41.23554 | -8.67247 | 255 ft | 2 kts | 108° |
| 2026-04-16 09:20 | 41.23551 | -8.67236 | 255 ft | 0 kts | 109° |